Terminal Aerodrome Forecast
Issued by NWS

Home | Current Version | Previous Version | Text Only | Print | Product List | Glossary On
Versions: 1 2 3 4 5 6 7 8 9 10 11 12 13
000
FTUS46 KMTR 251720
TAFOAK
TAF
KOAK 251720Z 2518/2624 29005KT P6SM OVC014
      TEMPO 2518/2519 SCT015
     FM251900 30008KT P6SM FEW015
     FM252200 30012KT P6SM FEW018
     FM260500 29007KT P6SM BKN014
     FM261000 30005KT P6SM OVC012
     FM261730 28007KT P6SM SCT014
     FM262000 30012KT P6SM FEW015=

USA.gov is the U.S. government's official web portal to all federal, state and local government web resources and services.